Main page
METAR-TAF:

METAR-TAF

Airports :

Provo Municipal Airport

Provo, Utah, United States

latitude: 40-13N, longitude: 111-43W, elevation: 4490 ft

Current weather observation

The report was made 27 minutes ago, at 06:56 UTC
Wind 14 mph from the Southeast
Temperature 75°F
Humidity 36%
Pressure 29.87 in. Hg
Visibility: 10 miles
Clear sky

METAR: KPVU 150656Z AUTO 14012KT 10SM CLR 24/08 A2987 RMK AO2 SLP047 T02440083

Time: 01:23 (07:23 UTC)

Forecast

The report was made 2 hours and 3 minutes ago, at 05:20 UTC
Forecast valid from 15 at 06 UTC to 16 at 06 UTC
Wind 10 mph from the Southeast
Visibility: 6 miles
Scattered clouds at a height of 15000 ft
From 15 at 1700 UTC
Wind 8 mph from the West/Northwest
Visibility: 6 miles
Few clouds at a height of 20000 ft

TAF: KPVU 150520Z 1506/1606 14009KT P6SM SCT150 FM151700 29007KT P6SM FEW200

Weather observations and forecasts of more than 4000 airports (METAR and TAF reports).

The available stations are represented by yellow and red dots on the map.

Hover mouse over dot to see the name of the station.

Then click to see weather observations and forecasts.

To change the map : click on the green buttons with a black cross to zoom in, on the green button with a dash to zoom out, or on the green arrows for adjacent maps.


METAR-TAF: